createdAt,value
2019-04-26T00:05:00.916Z,18.30
2019-04-26T00:10:08.259Z,18.30
2019-04-26T00:15:22.934Z,18.30
2019-04-26T00:20:27.245Z,18.20
2019-04-26T00:25:31.285Z,18.20
2019-04-26T00:30:35.207Z,18.20
2019-04-26T00:35:47.448Z,18.20
2019-04-26T00:40:45.285Z,18.10
2019-04-26T00:45:52.646Z,18.10
2019-04-26T00:50:57.393Z,18.10
2019-04-26T00:56:02.376Z,18.00
2019-04-26T01:01:06.293Z,18.00
2019-04-26T01:06:11.857Z,18.00
2019-04-26T01:11:16.726Z,17.90
2019-04-26T01:16:22.752Z,17.90
2019-04-26T01:21:29.566Z,17.90
2019-04-26T01:26:35.026Z,17.90
2019-04-26T01:31:44.696Z,17.80
2019-04-26T01:36:50.415Z,17.70
2019-04-26T01:42:13.530Z,17.70
2019-04-26T01:47:17.949Z,17.70
2019-04-26T01:52:22.871Z,17.60
2019-04-26T01:57:29.617Z,17.60
2019-04-26T02:02:35.095Z,17.60
2019-04-26T02:07:39.320Z,17.50
2019-04-26T02:12:46.131Z,17.60
2019-04-26T02:17:51.970Z,17.60
2019-04-26T02:22:57.460Z,17.50
2019-04-26T02:28:01.372Z,17.40
2019-04-26T02:33:05.399Z,17.30
2019-04-26T02:38:09.302Z,17.30
2019-04-26T02:43:15.323Z,17.30
2019-04-26T02:48:34.281Z,17.40
2019-04-26T02:53:55.855Z,17.30
2019-04-26T02:59:02.688Z,17.30
2019-04-26T03:04:06.861Z,17.10
2019-04-26T03:09:12.419Z,17.20
2019-04-26T03:14:22.489Z,17.30
2019-04-26T03:19:35.707Z,17.30
2019-04-26T03:24:44.826Z,17.20
2019-04-26T03:30:19.522Z,17.20
2019-04-26T03:35:39.865Z,17.10
2019-04-26T03:40:55.643Z,16.90
2019-04-26T03:46:05.265Z,17.00
2019-04-26T03:51:37.190Z,17.00
2019-04-26T03:56:45.634Z,16.90
2019-04-26T04:01:56.601Z,16.80
2019-04-26T04:07:05.030Z,16.80
2019-04-26T04:12:12.469Z,16.80
2019-04-26T04:17:27.079Z,16.80
2019-04-26T04:22:49.356Z,16.90
2019-04-26T04:27:56.601Z,17.10
2019-04-26T04:33:06.148Z,17.00
2019-04-26T04:38:30.977Z,17.10
2019-04-26T04:43:41.949Z,17.10
2019-04-26T04:49:16.503Z,17.10
2019-04-26T04:54:29.134Z,17.10
2019-04-26T04:59:38.792Z,17.20
2019-04-26T05:04:47.220Z,17.20
2019-04-26T05:10:05.893Z,17.40
2019-04-26T05:15:35.442Z,17.30
2019-04-26T05:20:42.377Z,17.50
2019-04-26T05:26:07.107Z,17.50
2019-04-26T05:31:23.983Z,17.50
2019-04-26T05:36:39.848Z,17.50
2019-04-26T05:42:13.646Z,17.60
2019-04-26T05:47:33.586Z,17.80
2019-04-26T05:52:58.277Z,17.90
2019-04-26T05:58:33.146Z,17.90
2019-04-26T06:03:50.851Z,18.00
2019-04-26T06:09:27.472Z,18.20
2019-04-26T06:14:43.163Z,18.30
2019-04-26T06:20:22.762Z,18.40
2019-04-26T06:25:45.161Z,18.70
2019-04-26T06:30:53.946Z,18.90
2019-04-26T06:35:59.863Z,19.10
2019-04-26T06:41:22.490Z,19.20
2019-04-26T06:46:48.710Z,19.40
2019-04-26T06:52:08.649Z,19.50
2019-04-26T06:57:59.356Z,19.70
2019-04-26T07:03:21.677Z,19.80
2019-04-26T07:08:42.868Z,19.90
2019-04-26T07:14:02.707Z,20.00
2019-04-26T07:19:32.524Z,20.20
2019-04-26T07:24:46.681Z,20.30
2019-04-26T07:30:12.039Z,20.50
2019-04-26T07:35:27.938Z,20.60
2019-04-26T07:41:12.575Z,20.90
2019-04-26T07:46:51.011Z,21.20
2019-04-26T07:52:18.927Z,21.60
2019-04-26T07:57:59.149Z,22.10
2019-04-26T08:03:10.805Z,22.50
2019-04-26T08:08:17.777Z,23.10
2019-04-26T08:13:24.323Z,23.40
2019-04-26T08:18:32.745Z,24.00
2019-04-26T08:23:42.261Z,24.40
2019-04-26T08:28:49.286Z,24.80
2019-04-26T08:34:01.648Z,25.10
2019-04-26T08:39:10.928Z,26.00
2019-04-26T08:44:17.591Z,26.80
2019-04-26T08:49:35.130Z,26.80
2019-04-26T08:54:42.033Z,27.30
2019-04-26T08:59:48.844Z,27.60
2019-04-26T09:05:12.132Z,27.70
2019-04-26T09:10:20.028Z,28.00
2019-04-26T09:15:41.988Z,28.20
2019-04-26T09:20:45.915Z,28.60
2019-04-26T09:25:59.083Z,28.80
2019-04-26T09:31:04.829Z,29.10
2019-04-26T09:36:09.881Z,29.10
2019-04-26T09:41:14.011Z,29.30
2019-04-26T09:46:35.048Z,29.20
2019-04-26T09:51:40.470Z,29.30
2019-04-26T09:56:44.840Z,29.40
2019-04-26T10:01:48.766Z,29.60
2019-04-26T10:06:52.796Z,29.60
2019-04-26T10:11:58.463Z,29.60
2019-04-26T10:17:04.037Z,29.80
2019-04-26T10:22:07.962Z,29.70
2019-04-26T10:27:11.986Z,29.80
2019-04-26T10:32:15.916Z,30.00
2019-04-26T10:37:20.195Z,30.20
2019-04-26T10:42:24.485Z,30.00
2019-04-26T10:47:28.398Z,30.00
2019-04-26T10:52:53.637Z,30.20
2019-04-26T10:58:11.183Z,30.40
2019-04-26T11:03:17.169Z,30.30
2019-04-26T11:08:21.289Z,29.50
2019-04-26T11:13:25.380Z,29.50
2019-04-26T11:18:31.191Z,29.30
2019-04-26T11:23:35.223Z,29.40
2019-04-26T11:28:39.110Z,29.90
2019-04-26T11:33:45.132Z,29.90
2019-04-26T11:38:48.947Z,30.00
2019-04-26T11:43:54.456Z,29.70
2019-04-26T11:48:59.449Z,29.70
2019-04-26T11:54:04.412Z,29.70
2019-04-26T11:59:08.341Z,29.70
2019-04-26T12:04:33.567Z,29.80
2019-04-26T12:09:39.515Z,29.40
2019-04-26T12:14:45.919Z,29.20
2019-04-26T12:19:52.269Z,28.70
2019-04-26T12:24:55.415Z,28.50
2019-04-26T12:29:59.344Z,28.50
2019-04-26T12:35:03.247Z,28.50
2019-04-26T12:40:11.342Z,28.80
2019-04-26T12:45:18.360Z,29.00
2019-04-26T12:50:22.738Z,29.10
2019-04-26T12:55:26.767Z,29.10
2019-04-26T13:00:33.101Z,28.70
2019-04-26T13:05:36.221Z,28.60
2019-04-26T13:10:46.413Z,28.30
2019-04-26T13:15:59.777Z,28.30
2019-04-26T13:21:04.334Z,28.10
2019-04-26T13:26:08.652Z,28.00
2019-04-26T13:31:12.713Z,28.10
2019-04-26T13:36:16.811Z,28.10
2019-04-26T13:41:21.683Z,28.00
2019-04-26T13:46:29.980Z,28.00
2019-04-26T13:51:38.149Z,28.00
2019-04-26T13:56:42.357Z,27.90
2019-04-26T14:01:46.586Z,27.70
2019-04-26T14:06:50.616Z,27.50
2019-04-26T14:11:58.037Z,27.60
2019-04-26T14:17:00.308Z,27.50
2019-04-26T14:22:07.119Z,27.60
2019-04-26T14:27:15.114Z,27.40
2019-04-26T14:32:22.832Z,27.40
2019-04-26T14:37:25.134Z,27.30
2019-04-26T14:42:34.252Z,27.00
2019-04-26T14:47:46.876Z,26.70
2019-04-26T14:52:40.190Z,26.70
2019-04-26T14:57:46.722Z,26.60
2019-04-26T15:02:55.849Z,26.60
2019-04-26T15:07:57.293Z,26.60
2019-04-26T15:13:14.211Z,26.60
2019-04-26T15:18:06.992Z,26.70
2019-04-26T15:23:10.918Z,26.70
2019-04-26T15:28:14.770Z,26.60
2019-04-26T15:33:18.645Z,26.50
2019-04-26T15:38:23.115Z,26.70
2019-04-26T15:43:28.590Z,26.80
2019-04-26T15:48:54.644Z,26.90
2019-04-26T15:53:56.144Z,26.90
2019-04-26T15:59:00.028Z,26.90
2019-04-26T16:04:06.376Z,26.90
2019-04-26T16:09:13.797Z,26.90
2019-04-26T16:14:16.202Z,26.80
2019-04-26T16:19:20.096Z,26.70
2019-04-26T16:24:24.075Z,26.70
2019-04-26T16:29:50.845Z,26.60
2019-04-26T16:34:55.013Z,26.60
2019-04-26T16:39:58.913Z,26.50
2019-04-26T16:45:04.679Z,26.50
2019-04-26T16:50:08.715Z,26.40
2019-04-26T16:55:20.500Z,26.40
2019-04-26T17:00:18.244Z,26.30
2019-04-26T17:05:44.031Z,26.20
2019-04-26T17:10:27.653Z,26.20
2019-04-26T17:15:32.322Z,26.10
2019-04-26T17:20:40.494Z,26.00
2019-04-26T17:25:50.372Z,25.90
2019-04-26T17:30:54.304Z,25.90
2019-04-26T17:35:58.250Z,25.70
2019-04-26T17:41:02.108Z,25.60
2019-04-26T17:46:06.043Z,25.60
2019-04-26T17:51:18.350Z,25.40
2019-04-26T17:56:15.868Z,25.40
2019-04-26T18:01:39.968Z,25.30
2019-04-26T18:06:29.881Z,25.20
2019-04-26T18:11:32.853Z,25.10
2019-04-26T18:16:38.198Z,25.00
2019-04-26T18:21:43.829Z,24.90
2019-04-26T18:26:52.239Z,24.90
2019-04-26T18:31:53.640Z,24.80
2019-04-26T18:37:01.840Z,24.60
2019-04-26T18:42:05.833Z,24.50
2019-04-26T18:47:20.555Z,24.30
2019-04-26T18:52:23.369Z,24.30
2019-04-26T18:57:27.867Z,24.10
2019-04-26T19:02:33.310Z,24.00
2019-04-26T19:07:37.549Z,23.80
2019-04-26T19:12:43.590Z,23.80
2019-04-26T19:17:51.742Z,23.80
2019-04-26T19:22:57.457Z,23.70
2019-04-26T19:28:04.315Z,23.70
2019-04-26T19:33:10.067Z,23.60
2019-04-26T19:38:14.862Z,23.60
2019-04-26T19:43:30.363Z,23.50
2019-04-26T19:48:26.174Z,23.30
2019-04-26T19:53:34.563Z,23.20
2019-04-26T19:58:41.977Z,23.10
2019-04-26T20:03:47.217Z,23.10
2019-04-26T20:08:52.028Z,23.00
2019-04-26T20:13:56.137Z,23.10
2019-04-26T20:18:59.984Z,23.10
2019-04-26T20:24:03.913Z,23.00
2019-04-26T20:29:10.164Z,23.00
2019-04-26T20:34:18.167Z,23.00
2019-04-26T20:39:21.172Z,23.00
2019-04-26T20:44:28.471Z,23.00
2019-04-26T20:49:33.372Z,22.90
2019-04-26T20:54:37.294Z,22.80
2019-04-26T20:59:41.658Z,22.80
2019-04-26T21:04:46.806Z,22.60
2019-04-26T21:09:50.683Z,22.50
2019-04-26T21:14:54.561Z,22.50
2019-04-26T21:19:58.740Z,22.50
2019-04-26T21:25:04.774Z,22.40
2019-04-26T21:30:16.322Z,22.30
2019-04-26T21:35:34.058Z,22.20
2019-04-26T21:40:43.771Z,22.20
2019-04-26T21:45:47.827Z,22.10
2019-04-26T21:50:51.693Z,22.10
2019-04-26T21:55:55.574Z,22.00
2019-04-26T22:01:05.293Z,21.90
2019-04-26T22:06:09.151Z,21.80
2019-04-26T22:11:13.984Z,21.70
2019-04-26T22:16:34.409Z,21.70
2019-04-26T22:21:30.808Z,21.60
2019-04-26T22:26:38.033Z,21.50
2019-04-26T22:31:41.437Z,21.30
2019-04-26T22:36:45.886Z,21.10
2019-04-26T22:41:49.827Z,20.90
2019-04-26T22:47:04.917Z,20.70
2019-04-26T22:52:11.146Z,20.60
2019-04-26T22:57:16.415Z,20.30
2019-04-26T23:02:25.860Z,20.10
2019-04-26T23:07:26.414Z,19.80
2019-04-26T23:12:33.711Z,19.70
2019-04-26T23:17:39.084Z,19.60
2019-04-26T23:22:43.031Z,19.50
2019-04-26T23:27:50.496Z,19.40
2019-04-26T23:32:53.277Z,19.30
2019-04-26T23:38:00.924Z,19.20
2019-04-26T23:43:02.949Z,19.10
2019-04-26T23:48:07.761Z,18.80
2019-04-26T23:53:13.848Z,18.70
2019-04-26T23:58:17.960Z,18.60
